Lemhi County Airport
KSMN : now visible

Airfield :











YOU CAN JOIN US ON...

 
LOGIN :

Register | Disclaimer

   EN    FR    IT 

 









Legend :    VFR   Marginal VFR   IFR   Intensive IFR   Very Intensive IFR
Visi :
Ceiling :
>= 8 km
>= 3000ft
5 to 8 km
1000 to 3000 ft
1500m to 5 km
500 to 1000 ft
800 to 1500m
200 to 500 ft
< 800m
< 200 ft
Symbols :   Thunderstorms  Fog  Heavy snow  Heavy precipitations  Wind > 20 kt






- Airport Elevation : 4043 ft


KSMN - Lemhi County

CURRENT METAR :
  • 171256Z AUTO 00000KT 9SM BKN120 01/M02 A2966 RMK AO2 SLP048 T00061017 FZRANO

EXPIRED METARs :
  • 171156Z AUTO 00000KT 10SM CLR 00/M02 A2968 RMK AO2 SLP048 T00001022 10033 21006 56018 FZRANO
  • 171056Z AUTO 00000KT 10SM CLR 01/M02 A2969 RMK AO2 SLP050 T00061017 FZRANO

TAF KSMN
Valid from the 17 at 12:00 until the 18 at 12:00 UTC


171124Z 1712/1812 19003KT P6SM BKN100
FM172000 25004KT P6SM VCSH BKN080 OVC100
FM172200 26008KT P6SM -SHRASN OVC050
FM180300 34005KT P6SM BKN050



MET'MAP, your aeronautical weather chart ! - Copyright ORBIFLY December 2007 - Disclaimer

ORBIFLY MET'MAP TEAM :

Programming & Development : Alexandra Zaïnal
Concept & Development : Baudouin d'Aumeries
Co-Development & Prog : Marc-Olivier Méhu
Technical & hardware support : Manuel Goepfert

Contact : metmap@orbifly.com




SOURCES & CREDITS :

   NOAA       Earth
Advisory